Philadelphia, PA

12:25 PM EST on March 04, 2015 (GMT -0500)
Somerton | Change Station
CLOSE
Current Station
Personal Weather Station
Location: Philadelphia, PA
Elevation: 167 ft
Nearby Weather Stations

Elev 167 ft 40.13 °N, 75.00 °W | Updated 1 minute ago

Haze
Haze
47.3 °F
Feels Like 47 °F
N
0.0
Wind Variable Wind from NNW

Today
High -- | Low -- °F
--% Chance of Precip.
Yesterday
High -- | Low -- °F
Precip. -- in
6:29 AM 5:54 PM
Waxing Gibbous, 99% visible
Pressure 29.92 in
Visibility 3.0 miles
Clouds Scattered Clouds 700 ft
Overcast 8500 ft
Windchill 47 °F
Dew Point 44 °F
Humidity 87%
Rainfall 0.53 in
Snow Depth Not available.
UV 2 out of 12
Pollen .60 out of 12
Air Quality Not available.
Flu Activity Not available.
METAR KPNE 041654Z 25005KT 3SM HZ SCT007 OVC085 06/03 A2992 RMK AO2 RAE18 SLP132 P0000 T00610028

More Conditions Fewer Conditions

Pressure 29.92 in
Visibility 3.0 miles
Clouds Scattered Clouds 700 ft
Overcast 8500 ft
Windchill 47 °F
Dew Point 44 °F
Humidity 87%
Rainfall 0.53 in
Snow Depth Not available.
UV 2 out of 12
Pollen .60 out of 12
Air Quality Not available.
Flu Activity Not available.
METAR KPNE 041654Z 25005KT 3SM HZ SCT007 OVC085 06/03 A2992 RMK AO2 RAE18 SLP132 P0000 T00610028

More Conditions Fewer Conditions

10-Day Weather Forecast

Almanac

Astronomy

Mar. 04, 2015 Rise Set
Actual Time
Civil Twilight
Nautical Twilight
Astronomical Twilight
Moon
Length of Visible Light
Length of Day
Tomorrow will be .
, % of the Moon is Illuminated

Today's Extremes

State Highs State Lows

Community

WunderPhotos

Upload Photos

1,802,516 photos uploaded!

WunderBlogs® & News

Nearby

Air Quality

  Air Quality AQ Index Pollutant
Not available.

Snow Depth

Station Depth Elevation

Earthquake Activity

City Distance Mag. Time & Date
Minimum magnitude displayed is 2.5.

Coastal Water Temperatures

Place Temperature

Nearby Weather Stations

Winter Storm Warning
Statement as of 8:34 AM EST on March 04, 2015

... Winter Storm Warning remains in effect from 11 PM this evening
to 7 PM EST Thursday...

* hazard types... a steady accumulating snow... possibly heavy at
times... from late tonight into Thursday.

* Snow accumulations... 6 to 10 inches.

* Timing... rain will change to snow overnight and the snow will
continue into Thursday.

* Impacts... widespread and substantial impacts on travel are
expected for late tonight and Thursday.

Precautionary/preparedness actions...

This Winter Storm Warning means that significant amounts of snow
are expected. The snow will make travel very hazardous or
impossible.